createdAt,value
2023-04-01T00:00:54.082Z,6.75
2023-04-01T00:03:39.371Z,7.38
2023-04-01T00:06:24.774Z,6.70
2023-04-01T00:09:10.105Z,8.65
2023-04-01T00:11:54.960Z,8.63
2023-04-01T00:14:40.839Z,8.38
2023-04-01T00:17:26.255Z,8.57
2023-04-01T00:20:12.367Z,8.75
2023-04-01T00:22:58.079Z,8.88
2023-04-01T00:25:43.637Z,8.10
2023-04-01T00:28:28.820Z,7.68
2023-04-01T00:31:14.476Z,7.50
2023-04-01T00:33:59.976Z,7.13
2023-04-01T00:36:45.117Z,8.43
2023-04-01T00:39:32.217Z,7.70
2023-04-01T00:42:17.825Z,7.60
2023-04-01T00:45:27.445Z,8.10
2023-04-01T00:48:19.066Z,7.80
2023-04-01T00:51:15.051Z,7.97
2023-04-01T00:54:02.821Z,8.02
2023-04-01T00:56:57.067Z,7.75
2023-04-01T00:59:48.977Z,7.88
2023-04-01T01:02:35.611Z,6.65
2023-04-01T01:05:34.145Z,5.15
2023-04-01T01:08:40.933Z,4.63
2023-04-01T01:11:55.184Z,5.13
2023-04-01T01:14:57.668Z,5.13
2023-04-01T01:17:51.317Z,6.10
2023-04-01T01:20:46.286Z,6.22
2023-04-01T01:23:41.702Z,5.60
2023-04-01T01:26:30.136Z,6.25
2023-04-01T01:29:18.194Z,7.07
2023-04-01T01:32:18.374Z,6.88
2023-04-01T01:35:21.413Z,7.00
2023-04-01T01:38:17.576Z,7.35
2023-04-01T01:41:05.933Z,7.20
2023-04-01T01:43:53.160Z,7.32
2023-04-01T01:46:40.716Z,7.47
2023-04-01T01:49:28.293Z,7.93
2023-04-01T01:52:14.132Z,6.80
2023-04-01T01:54:59.739Z,7.22
2023-04-01T01:57:45.775Z,7.93
2023-04-01T02:00:31.161Z,7.45
2023-04-01T02:03:18.458Z,6.75
2023-04-01T02:06:08.150Z,7.25
2023-04-01T02:08:59.125Z,7.78
2023-04-01T02:11:49.444Z,7.22
2023-04-01T02:14:55.642Z,6.70
2023-04-01T02:17:45.458Z,7.20
2023-04-01T02:20:31.323Z,7.35
2023-04-01T02:23:16.908Z,7.30
2023-04-01T02:26:04.680Z,6.93
2023-04-01T02:28:51.705Z,7.38
2023-04-01T02:31:37.811Z,8.60
2023-04-01T02:34:24.971Z,8.73
2023-04-01T02:37:12.429Z,8.75
2023-04-01T02:40:08.520Z,7.78
2023-04-01T02:42:53.579Z,6.63
2023-04-01T02:45:39.135Z,6.78
2023-04-01T02:48:24.543Z,5.80
2023-04-01T02:51:10.094Z,4.53
2023-04-01T02:53:55.281Z,3.83
2023-04-01T02:56:40.544Z,3.63
2023-04-01T02:59:25.752Z,3.72
2023-04-01T03:02:11.081Z,2.72
2023-04-01T03:04:56.247Z,2.72
2023-04-01T03:07:41.469Z,3.15
2023-04-01T03:10:26.739Z,2.50
2023-04-01T03:13:11.870Z,2.45
2023-04-01T03:15:57.179Z,2.40
2023-04-01T03:18:42.371Z,2.28
2023-04-01T03:21:27.686Z,2.30
2023-04-01T03:24:12.939Z,2.30
2023-04-01T03:26:57.844Z,2.90
2023-04-01T03:29:43.310Z,2.67
2023-04-01T03:32:28.783Z,2.85
2023-04-01T03:35:14.167Z,2.92
2023-04-01T03:37:59.398Z,2.70
2023-04-01T03:40:45.294Z,2.42
2023-04-01T03:43:30.508Z,2.45
2023-04-01T03:46:19.952Z,2.80
2023-04-01T03:49:12.400Z,3.15
2023-04-01T03:51:57.441Z,2.90
2023-04-01T03:54:42.527Z,3.40
2023-04-01T03:57:27.480Z,3.20
2023-04-01T04:00:13.202Z,3.40
2023-04-01T04:02:58.978Z,3.50
2023-04-01T04:05:49.175Z,3.20
2023-04-01T04:08:34.151Z,3.30
2023-04-01T04:11:20.257Z,3.10
2023-04-01T04:14:05.826Z,4.20
2023-04-01T04:16:50.748Z,3.25
2023-04-01T04:19:35.623Z,3.00
2023-04-01T04:22:20.715Z,2.92
2023-04-01T04:25:06.645Z,3.28
2023-04-01T04:27:51.500Z,2.30
2023-04-01T04:30:36.439Z,2.65
2023-04-01T04:33:22.676Z,2.92
2023-04-01T04:36:08.507Z,2.25
2023-04-01T04:38:53.452Z,2.40
2023-04-01T04:41:38.953Z,2.45
2023-04-01T04:44:24.131Z,1.85
2023-04-01T04:47:09.344Z,2.28
2023-04-01T04:49:54.590Z,2.70
2023-04-01T04:52:39.753Z,2.10
2023-04-01T04:55:24.870Z,2.13
2023-04-01T04:58:09.950Z,2.33
2023-04-01T05:00:55.363Z,2.15
2023-04-01T05:03:40.692Z,2.35
2023-04-01T05:06:26.705Z,2.00
2023-04-01T05:09:11.779Z,2.00
2023-04-01T05:11:56.916Z,2.30
2023-04-01T05:14:41.873Z,2.03
2023-04-01T05:17:27.226Z,1.70
2023-04-01T05:20:13.712Z,1.90
2023-04-01T05:23:00.031Z,2.05
2023-04-01T05:25:46.220Z,2.10
2023-04-01T05:28:31.207Z,1.75
2023-04-01T05:31:16.141Z,1.92
2023-04-01T05:34:01.235Z,1.92
2023-04-01T05:36:46.496Z,1.75
2023-04-01T05:39:31.706Z,1.45
2023-04-01T05:42:17.324Z,1.88
2023-04-01T05:45:02.369Z,1.80
2023-04-01T05:47:47.857Z,1.60
2023-04-01T05:50:33.245Z,1.83
2023-04-01T05:53:18.419Z,1.80
2023-04-01T05:56:04.920Z,2.38
2023-04-01T05:58:52.899Z,1.80
2023-04-01T06:01:38.242Z,1.60
2023-04-01T06:04:23.465Z,1.60
2023-04-01T06:07:19.293Z,1.55
2023-04-01T06:10:13.579Z,1.60
2023-04-01T06:13:12.134Z,1.70
2023-04-01T06:16:08.824Z,1.67
2023-04-01T06:19:03.114Z,1.70
2023-04-01T06:22:06.707Z,1.70
2023-04-01T06:25:04.877Z,1.70
2023-04-01T06:28:35.449Z,2.20
2023-04-01T06:31:39.914Z,2.00
2023-04-01T06:35:01.909Z,1.92
2023-04-01T06:37:56.033Z,2.20
2023-04-01T06:41:12.254Z,2.70
2023-04-01T06:44:08.679Z,2.10
2023-04-01T06:47:00.425Z,2.20
2023-04-01T06:50:12.562Z,2.17
2023-04-01T06:53:07.668Z,2.60
2023-04-01T06:56:05.202Z,2.95
2023-04-01T06:58:58.584Z,3.08
2023-04-01T07:01:48.496Z,3.50
2023-04-01T07:04:39.194Z,3.53
2023-04-01T07:07:38.749Z,3.45
2023-04-01T07:10:32.088Z,3.25
2023-04-01T07:13:24.611Z,3.15
2023-04-01T07:16:09.414Z,3.03
2023-04-01T07:19:35.677Z,3.03
2023-04-01T07:22:35.038Z,2.30
2023-04-01T07:25:38.961Z,2.10
2023-04-01T07:28:23.939Z,2.00
2023-04-01T07:31:20.983Z,3.08
2023-04-01T07:34:24.120Z,3.42
2023-04-01T07:37:14.675Z,1.98
2023-04-01T07:40:00.044Z,1.80
2023-04-01T07:43:06.646Z,2.35
2023-04-01T07:46:27.470Z,2.08
2023-04-01T07:49:22.808Z,3.10
2023-04-01T07:52:19.526Z,2.90
2023-04-01T07:55:22.480Z,2.75
2023-04-01T07:58:40.409Z,3.28
2023-04-01T08:01:38.717Z,3.25
2023-04-01T08:04:59.050Z,3.13
2023-04-01T08:08:16.489Z,2.60
2023-04-01T08:11:23.125Z,2.55
2023-04-01T08:14:35.387Z,2.15
2023-04-01T08:17:36.070Z,2.67
2023-04-01T08:20:33.209Z,1.92
2023-04-01T08:23:45.954Z,2.00
2023-04-01T08:26:41.362Z,1.85
2023-04-01T08:30:00.963Z,3.00
2023-04-01T08:32:56.928Z,2.20
2023-04-01T08:35:51.267Z,2.70
2023-04-01T08:38:58.317Z,3.22
2023-04-01T08:42:07.705Z,3.25
2023-04-01T08:45:20.234Z,3.75
2023-04-01T08:48:47.079Z,4.10
2023-04-01T08:51:49.660Z,4.20
2023-04-01T08:55:03.925Z,4.25
2023-04-01T08:58:20.090Z,4.50
2023-04-01T09:01:28.531Z,4.10
2023-04-01T09:04:32.453Z,4.25
2023-04-01T09:07:20.940Z,4.05
2023-04-01T09:10:08.680Z,5.35
2023-04-01T09:13:08.174Z,5.78
2023-04-01T09:16:21.402Z,6.25
2023-04-01T09:19:12.718Z,6.30
2023-04-01T09:22:12.926Z,6.50
2023-04-01T09:25:16.524Z,5.43
2023-04-01T09:28:11.278Z,5.38
2023-04-01T09:31:20.383Z,4.85
2023-04-01T09:34:25.491Z,4.50
2023-04-01T09:37:22.523Z,4.07
2023-04-01T09:40:35.092Z,4.57
2023-04-01T09:43:27.844Z,4.10
2023-04-01T09:46:32.323Z,4.93
2023-04-01T09:49:51.682Z,3.63
2023-04-01T09:52:52.042Z,4.40
2023-04-01T09:56:13.751Z,4.00
2023-04-01T09:59:20.844Z,4.60
2023-04-01T10:02:28.472Z,4.38
2023-04-01T10:05:13.921Z,4.05
2023-04-01T10:08:27.401Z,4.03
2023-04-01T10:11:25.190Z,4.80
2023-04-01T10:14:22.379Z,4.32
2023-04-01T10:17:41.326Z,4.47
2023-04-01T10:21:06.698Z,4.38
2023-04-01T10:24:11.122Z,4.50
2023-04-01T10:27:23.169Z,4.60
2023-04-01T10:30:38.939Z,4.32
2023-04-01T10:33:26.809Z,4.30
2023-04-01T10:36:31.193Z,3.45
2023-04-01T10:39:37.489Z,3.72
2023-04-01T10:42:46.363Z,3.40
2023-04-01T10:45:52.753Z,3.50
2023-04-01T10:48:59.809Z,3.45
2023-04-01T10:52:03.634Z,3.30
2023-04-01T10:55:01.101Z,3.40
2023-04-01T10:58:08.069Z,3.40
2023-04-01T11:01:14.392Z,3.25
2023-04-01T11:04:24.384Z,3.42
2023-04-01T11:10:27.667Z,3.47
2023-04-01T11:13:37.130Z,3.53
2023-04-01T11:16:37.950Z,3.47
2023-04-01T11:19:32.563Z,3.83
2023-04-01T11:22:38.937Z,3.97
2023-04-01T11:25:42.524Z,3.55
2023-04-01T11:28:42.679Z,3.50
2023-04-01T11:31:40.734Z,3.45
2023-04-01T11:34:49.874Z,3.13
2023-04-01T11:38:10.649Z,2.72
2023-04-01T11:41:26.542Z,2.92
2023-04-01T11:44:30.066Z,3.13
2023-04-01T11:47:35.588Z,3.05
2023-04-01T11:50:46.821Z,2.78
2023-04-01T11:53:50.625Z,2.65
2023-04-01T11:56:57.449Z,2.67
2023-04-01T11:59:58.224Z,3.30
2023-04-01T12:03:11.712Z,2.78
2023-04-01T12:06:09.066Z,3.55
2023-04-01T12:09:19.310Z,2.97
2023-04-01T12:12:26.551Z,3.28
2023-04-01T12:15:42.624Z,3.38
2023-04-01T12:18:48.931Z,4.22
2023-04-01T12:22:23.342Z,5.28
2023-04-01T12:25:31.405Z,5.20
2023-04-01T12:28:35.617Z,4.82
2023-04-01T12:31:34.310Z,5.10
2023-04-01T12:34:22.735Z,5.30
2023-04-01T12:37:22.442Z,5.45
2023-04-01T12:40:07.796Z,5.18
2023-04-01T12:43:02.065Z,5.28
2023-04-01T12:46:02.411Z,5.75
2023-04-01T12:49:26.381Z,5.72
2023-04-01T12:52:14.386Z,5.18
2023-04-01T12:55:04.400Z,5.40
2023-04-01T12:58:24.966Z,5.03
2023-04-01T13:01:30.116Z,4.57
2023-04-01T13:04:51.186Z,4.95
2023-04-01T13:08:01.017Z,3.90
2023-04-01T13:11:00.479Z,3.53
2023-04-01T13:14:04.758Z,4.00
2023-04-01T13:17:08.793Z,4.25
2023-04-01T13:20:12.222Z,3.72
2023-04-01T13:23:11.457Z,2.33
2023-04-01T13:26:15.497Z,2.90
2023-04-01T13:29:11.138Z,3.10
2023-04-01T13:32:40.745Z,3.08
2023-04-01T13:35:43.595Z,2.60
2023-04-01T13:39:06.346Z,2.55
2023-04-01T13:42:13.006Z,2.63
2023-04-01T13:45:16.024Z,2.95
2023-04-01T13:48:28.540Z,3.08
2023-04-01T13:51:30.488Z,3.47
2023-04-01T13:54:29.527Z,3.75
2023-04-01T13:57:58.621Z,3.45
2023-04-01T14:00:56.327Z,7.68
2023-04-01T14:04:05.771Z,5.15
2023-04-01T14:07:09.466Z,8.90
2023-04-01T14:10:16.462Z,2.75
2023-04-01T14:13:13.097Z,2.10
2023-04-01T14:16:04.669Z,2.42
2023-04-01T14:19:39.239Z,2.58
2023-04-01T14:22:53.218Z,2.60
2023-04-01T14:25:50.659Z,2.47
2023-04-01T14:28:52.488Z,2.80
2023-04-01T14:31:40.544Z,2.47
2023-04-01T14:34:47.341Z,2.38
2023-04-01T14:37:56.746Z,2.20
2023-04-01T14:40:57.316Z,2.00
2023-04-01T14:43:58.311Z,1.90
2023-04-01T14:47:10.713Z,2.50
2023-04-01T14:50:17.650Z,1.98
2023-04-01T14:53:08.797Z,2.00
2023-04-01T14:55:56.316Z,2.08
2023-04-01T14:58:51.579Z,2.20
2023-04-01T15:01:43.578Z,1.88
2023-04-01T15:04:43.015Z,7.05
2023-04-01T15:07:47.170Z,5.60
2023-04-01T15:11:04.943Z,3.83
2023-04-01T15:14:08.708Z,2.63
2023-04-01T15:17:01.150Z,2.90
2023-04-01T15:19:54.935Z,2.60
2023-04-01T15:23:15.918Z,2.50
2023-04-01T15:26:17.391Z,2.20
2023-04-01T15:29:12.306Z,2.25
2023-04-01T15:32:11.164Z,2.53
2023-04-01T15:35:38.159Z,5.10
2023-04-01T15:38:34.688Z,6.85
2023-04-01T15:41:58.390Z,4.40
2023-04-01T15:45:12.268Z,2.97
2023-04-01T15:48:07.361Z,2.70
2023-04-01T15:50:56.538Z,2.70
2023-04-01T15:54:18.040Z,2.40
2023-04-01T15:57:24.279Z,3.47
2023-04-01T16:00:38.468Z,3.85
2023-04-01T16:03:42.487Z,4.47
2023-04-01T16:06:45.818Z,2.20
2023-04-01T16:09:36.661Z,3.10
2023-04-01T16:12:30.801Z,2.78
2023-04-01T16:15:30.292Z,3.97
2023-04-01T16:18:30.596Z,6.18
2023-04-01T16:21:24.741Z,5.75
2023-04-01T16:24:54.416Z,4.55
2023-04-01T16:30:58.337Z,3.63
2023-04-01T16:34:16.917Z,4.68
2023-04-01T16:37:13.835Z,3.20
2023-04-01T16:40:18.925Z,3.63
2023-04-01T16:43:15.080Z,3.22
2023-04-01T16:46:31.962Z,2.53
2023-04-01T16:49:43.856Z,3.33
2023-04-01T16:53:01.044Z,3.30
2023-04-01T16:56:06.439Z,3.70
2023-04-01T16:59:07.784Z,3.28
2023-04-01T17:02:04.629Z,4.30
2023-04-01T17:05:04.624Z,4.13
2023-04-01T17:10:54.497Z,4.07
2023-04-01T17:14:10.681Z,4.95
2023-04-01T17:17:33.482Z,4.28
2023-04-01T17:20:38.710Z,5.80
2023-04-01T17:24:01.620Z,6.30
2023-04-01T17:27:00.716Z,4.80
2023-04-01T17:30:19.254Z,4.82
2023-04-01T17:33:16.845Z,5.32
2023-04-01T17:36:04.985Z,4.93
2023-04-01T17:39:04.002Z,5.18
2023-04-01T17:42:10.939Z,4.80
2023-04-01T17:45:00.218Z,4.50
2023-04-01T17:47:46.368Z,4.88
2023-04-01T17:51:07.463Z,3.80
2023-04-01T17:54:19.096Z,3.95
2023-04-01T17:57:07.383Z,3.63
2023-04-01T18:00:18.742Z,3.90
2023-04-01T18:03:25.501Z,3.95
2023-04-01T18:06:30.765Z,3.67
2023-04-01T18:09:39.900Z,3.17
2023-04-01T18:13:02.729Z,4.18
2023-04-01T18:16:00.615Z,4.45
2023-04-01T18:19:01.347Z,3.27
2023-04-01T18:21:50.069Z,3.17
2023-04-01T18:24:46.777Z,3.58
2023-04-01T18:27:42.983Z,3.50
2023-04-01T18:30:33.742Z,3.67
2023-04-01T18:33:23.065Z,4.07
2023-04-01T18:36:25.824Z,4.23
2023-04-01T18:39:19.863Z,3.70
2023-04-01T18:42:40.191Z,3.78
2023-04-01T18:45:44.491Z,4.38
2023-04-01T18:48:53.274Z,4.40
2023-04-01T18:51:50.622Z,4.80
2023-04-01T18:55:13.676Z,6.50
2023-04-01T18:58:20.707Z,5.78
2023-04-01T19:01:21.276Z,7.75
2023-04-01T19:04:40.888Z,7.45
2023-04-01T19:07:38.076Z,4.10
2023-04-01T19:10:47.376Z,5.20
2023-04-01T19:13:51.099Z,4.10
2023-04-01T19:17:14.986Z,3.17
2023-04-01T19:20:21.625Z,3.35
2023-04-01T19:23:26.061Z,2.63
2023-04-01T19:26:23.328Z,2.80
2023-04-01T19:29:27.148Z,2.97
2023-04-01T19:32:49.255Z,2.70
2023-04-01T19:35:46.810Z,3.75
2023-04-01T19:38:40.112Z,3.25
2023-04-01T19:41:52.621Z,5.47
2023-04-01T19:44:51.008Z,3.70
2023-04-01T19:48:01.194Z,4.00
2023-04-01T19:50:57.009Z,6.10
2023-04-01T19:54:04.906Z,3.20
2023-04-01T19:57:22.586Z,4.53
2023-04-01T20:00:24.349Z,1.70
2023-04-01T20:03:34.466Z,1.83
2023-04-01T20:06:28.396Z,2.05
2023-04-01T20:09:41.750Z,2.55
2023-04-01T20:12:51.693Z,3.78
2023-04-01T20:16:02.154Z,1.92
2023-04-01T20:18:58.449Z,1.92
2023-04-01T20:21:47.543Z,2.17
2023-04-01T20:24:42.560Z,2.42
2023-04-01T20:27:33.358Z,2.58
2023-04-01T20:30:37.226Z,2.03
2023-04-01T20:33:44.399Z,1.58
2023-04-01T20:36:43.088Z,2.15
2023-04-01T20:39:37.963Z,2.07
2023-04-01T20:42:59.861Z,2.30
2023-04-01T20:46:04.332Z,1.48
2023-04-01T20:49:21.093Z,1.98
2023-04-01T20:52:11.974Z,1.60
2023-04-01T20:55:29.323Z,1.60
2023-04-01T20:58:29.039Z,2.10
2023-04-01T21:01:40.068Z,2.40
2023-04-01T21:04:42.276Z,3.40
2023-04-01T21:07:47.010Z,2.88
2023-04-01T21:11:01.420Z,2.10
2023-04-01T21:14:23.945Z,1.75
2023-04-01T21:17:43.363Z,1.10
2023-04-01T21:23:50.662Z,3.08
2023-04-01T21:26:44.887Z,3.53
2023-04-01T21:29:54.335Z,2.13
2023-04-01T21:32:50.452Z,2.67
2023-04-01T21:35:54.170Z,2.00
2023-04-01T21:39:03.951Z,2.33
2023-04-01T21:48:01.681Z,2.10
2023-04-01T21:51:05.649Z,2.25
2023-04-01T21:54:12.602Z,1.90
2023-04-01T21:57:37.353Z,1.42
2023-04-01T22:00:32.616Z,1.88
2023-04-01T22:03:35.865Z,1.52
2023-04-01T22:06:43.631Z,1.48
2023-04-01T22:10:01.275Z,1.60
2023-04-01T22:13:10.439Z,1.60
2023-04-01T22:16:19.908Z,1.50
2023-04-01T22:19:14.244Z,1.15
2023-04-01T22:22:18.418Z,1.50
2023-04-01T22:25:24.296Z,1.40
2023-04-01T22:28:17.677Z,1.27
2023-04-01T22:31:05.579Z,1.10
2023-04-01T22:34:00.977Z,1.10
2023-04-01T22:37:23.660Z,1.17
2023-04-01T22:40:37.987Z,0.90
2023-04-01T22:43:32.386Z,1.05
2023-04-01T22:46:50.049Z,0.95
2023-04-01T22:49:47.790Z,0.82
2023-04-01T22:52:38.596Z,1.00
2023-04-01T22:55:29.117Z,1.30
2023-04-01T22:58:22.547Z,1.13
2023-04-01T23:01:15.632Z,1.20
2023-04-01T23:04:04.336Z,1.15
2023-04-01T23:06:55.948Z,1.20
2023-04-01T23:09:41.243Z,1.20
2023-04-01T23:12:27.273Z,1.00
2023-04-01T23:15:15.612Z,1.48
2023-04-01T23:18:15.769Z,1.05
2023-04-01T23:21:24.859Z,1.23
2023-04-01T23:24:20.348Z,1.15
2023-04-01T23:27:24.475Z,0.95
2023-04-01T23:30:55.082Z,1.00
2023-04-01T23:33:39.980Z,1.00
2023-04-01T23:36:26.421Z,1.05
2023-04-01T23:39:23.725Z,1.20
2023-04-01T23:42:16.921Z,1.20
2023-04-01T23:45:05.722Z,1.45
2023-04-01T23:47:53.044Z,1.10
2023-04-01T23:50:38.537Z,1.50
2023-04-01T23:53:31.290Z,1.25
2023-04-01T23:56:19.681Z,0.90
2023-04-01T23:59:05.138Z,0.95
